.
WxDataArchive / Data Records for 2012-05-16
2012-05-15 May 2012 2012-05-17

Data Records for Wednesday, 16 May 2012

Time	Temp	Chill	HIndex	Humid	Dewpt	 Wind 	HiWind	WindDir	Rain 	Barom 
-----	----	-----	------	-----	-----	------	------	-------	-----	----- 
00:00	65.5	65.5	65.5	38	39.2	0	0	---	0.00	29.867 
00:05	65.5	65.5	65.5	38	39.2	0	1	270	0.00	29.867 
00:10	65.5	65.5	65.5	38	39.2	0	1	270	0.00	29.867 
00:15	65.6	65.6	65.6	37	38.6	0	1	270	0.00	29.867 
00:20	65.6	65.6	65.6	38	39.3	0	1	270	0.00	29.867 
00:25	65.6	65.6	65.6	37	38.6	0	1	270	0.00	29.867 
00:30	65.8	65.8	65.8	37	38.8	0	1	270	0.00	29.864 
00:35	66.0	66.0	66.0	37	39.0	0	3	270	0.00	29.864 
00:40	66.1	66.1	66.1	37	39.1	0	3	270	0.00	29.864 
00:45	66.3	66.3	66.3	36	38.5	0	2	270	0.00	29.862 
00:50	66.8	66.8	66.8	36	39.0	0	2	270	0.00	29.862 
00:55	66.9	66.9	66.9	36	39.1	0	1	270	0.00	29.862 
01:00	67.1	67.1	67.1	36	39.2	0	2	270	0.00	29.859 
01:05	67.1	67.1	67.1	35	38.5	0	2	270	0.00	29.859 
01:10	67.3	67.3	67.3	36	39.4	0	4	248	0.00	29.859 
01:15	67.3	67.3	67.3	36	39.4	0	2	248	0.00	29.856 
01:20	67.3	67.3	67.3	36	39.4	0	2	248	0.00	29.856 
01:25	67.1	67.1	67.1	36	39.2	0	2	248	0.00	29.856 
01:30	67.1	67.1	67.1	36	39.2	1	3	248	0.00	29.851 
01:35	67.1	67.1	67.1	36	39.2	0	2	90	0.00	29.851 
01:40	66.9	66.9	66.9	37	39.8	0	1	292	0.00	29.851 
01:45	66.9	66.9	66.9	37	39.8	1	3	270	0.00	29.852 
01:50	66.8	66.8	66.8	37	39.7	0	2	270	0.00	29.852 
01:55	66.6	66.6	66.6	38	40.2	0	2	270	0.00	29.852 
02:00	66.6	66.6	66.6	38	40.2	0	2	270	0.00	29.851 
02:05	66.6	66.6	66.6	39	40.9	0	2	270	0.00	29.851 
02:10	66.8	66.8	66.8	38	40.4	1	2	270	0.00	29.851 
02:15	66.8	66.8	66.8	38	40.4	0	2	270	0.00	29.847 
02:20	66.9	66.9	66.9	39	41.1	0	2	270	0.00	29.847 
02:25	66.9	66.9	66.9	38	40.5	1	3	270	0.00	29.847 
02:30	66.9	66.9	66.9	38	40.5	0	2	270	0.00	29.843 
02:35	67.1	67.1	67.1	38	40.6	0	3	270	0.00	29.843 
02:40	67.1	67.1	67.1	39	41.3	0	2	248	0.00	29.843 
02:45	67.1	67.1	67.1	39	41.3	0	2	248	0.00	29.841 
02:50	67.1	67.1	67.1	39	41.3	1	3	248	0.00	29.841 
02:55	67.1	67.1	67.1	39	41.3	0	2	248	0.00	29.841 
03:00	67.1	67.1	67.1	39	41.3	0	2	248	0.00	29.841 
03:05	66.9	66.9	66.9	39	41.1	0	2	248	0.00	29.841 
03:10	66.8	66.8	66.8	40	41.7	1	2	248	0.00	29.841 
03:15	66.6	66.6	66.6	40	41.5	1	3	248	0.00	29.846 
03:20	66.4	66.4	66.4	41	42.0	0	2	248	0.00	29.846 
03:25	66.1	66.1	66.1	41	41.7	0	2	248	0.00	29.846 
03:30	66.0	66.0	66.0	42	42.2	0	1	248	0.00	29.845 
03:35	65.8	65.8	65.8	43	42.7	0	1	248	0.00	29.845 
03:40	65.6	65.6	65.6	43	42.5	0	2	248	0.00	29.845 
03:45	65.5	65.5	65.5	43	42.4	0	2	248	0.00	29.847 
03:50	65.5	65.5	65.5	43	42.4	0	1	248	0.00	29.847 
03:55	65.3	65.3	65.3	43	42.2	0	1	248	0.00	29.847 
04:00	65.2	65.2	65.2	44	42.7	0	1	248	0.00	29.857 
04:05	65.2	65.2	65.2	44	42.7	1	2	248	0.00	29.857 
04:10	65.0	65.0	65.0	44	42.6	0	1	248	0.00	29.857 
04:15	65.0	65.0	65.0	45	43.1	0	1	248	0.00	29.858 
04:20	65.0	65.0	65.0	45	43.1	0	1	248	0.00	29.858 
04:25	64.8	64.8	64.8	46	43.5	0	1	248	0.00	29.858 
04:30	64.5	64.5	64.5	46	43.3	0	1	248	0.00	29.856 
04:35	64.3	64.3	64.3	46	43.1	0	0	---	0.00	29.856 
04:40	64.2	64.2	64.2	46	43.0	0	0	---	0.00	29.856 
04:45	63.9	63.9	63.9	47	43.3	0	0	---	0.00	29.858 
04:50	63.4	63.4	63.4	48	43.4	0	0	---	0.00	29.858 
04:55	62.7	62.7	62.7	50	43.8	0	0	---	0.00	29.858 
05:00	62.3	62.3	62.3	50	43.4	0	0	---	0.00	29.859 
05:05	61.8	61.8	61.8	51	43.5	0	0	---	0.00	29.859 
05:10	61.5	61.5	61.5	52	43.7	0	0	---	0.00	29.859 
05:15	61.2	61.2	61.2	53	43.9	0	0	---	0.00	29.861 
05:20	60.9	60.9	60.9	54	44.1	0	0	---	0.00	29.861 
05:25	60.5	60.5	60.5	54	43.8	0	0	---	0.00	29.861 
05:30	60.2	60.2	60.2	55	44.0	0	0	---	0.00	29.861 
05:35	59.9	59.9	59.9	56	44.2	0	0	---	0.00	29.861 
05:40	59.5	59.5	59.5	58	44.7	0	0	---	0.00	29.861 
05:45	59.0	59.0	59.0	60	45.1	0	0	---	0.00	29.868 
05:50	58.7	58.7	58.7	61	45.3	0	0	---	0.00	29.868 
05:55	58.3	58.3	58.3	61	44.9	0	0	---	0.00	29.868 
06:00	58.1	58.1	58.1	62	45.1	0	0	---	0.00	29.872 
06:05	58.0	58.0	58.0	62	45.1	0	0	---	0.00	29.872 
06:10	58.1	58.1	58.1	61	44.7	0	0	---	0.00	29.872 
06:15	58.4	58.4	58.4	60	44.6	0	0	---	0.00	29.870 
06:20	58.9	58.9	58.9	59	44.6	0	0	---	0.00	29.870 
06:25	59.2	59.2	59.2	58	44.4	0	0	---	0.00	29.870 
06:30	59.3	59.3	59.3	58	44.5	0	0	---	0.00	29.878 
06:35	59.3	59.3	59.3	58	44.5	0	0	---	0.00	29.878 
06:40	59.5	59.5	59.5	58	44.7	0	1	248	0.00	29.878 
06:45	59.6	59.6	59.6	59	45.3	0	1	248	0.00	29.893 
06:50	60.1	60.1	60.1	62	47.0	1	3	248	0.00	29.893 
06:55	60.4	60.4	60.4	65	48.6	1	5	22	0.00	29.893 
07:00	60.5	60.5	60.5	68	49.9	0	3	248	0.00	29.897 
07:05	60.5	60.5	60.5	69	50.3	0	4	248	0.00	29.897 
07:10	60.7	60.7	60.7	72	51.6	1	3	292	0.00	29.897 
07:15	60.5	60.5	60.5	73	51.8	1	7	315	0.00	29.909 
07:20	60.4	60.4	60.4	75	52.4	1	9	315	0.00	29.909 
07:25	60.2	60.2	60.2	77	53.0	1	4	22	0.00	29.909 
07:30	60.1	60.1	60.1	78	53.2	0	6	90	0.00	29.923 
07:35	59.8	59.8	59.8	75	51.9	1	5	338	0.00	29.923 
07:40	59.5	59.5	59.5	73	50.8	1	3	338	0.00	29.923 
07:45	59.2	59.2	59.2	68	48.6	1	4	292	0.00	29.928 
07:50	58.9	58.9	58.9	64	46.7	1	4	270	0.00	29.928 
07:55	58.9	58.9	58.9	61	45.5	1	7	0	0.00	29.928 
08:00	58.6	58.6	58.6	52	41.0	2	7	0	0.00	29.941 
08:05	58.3	58.3	58.3	51	40.3	1	5	338	0.00	29.941 
08:10	58.1	58.1	58.1	52	40.6	1	3	315	0.00	29.941 
08:15	58.1	58.1	58.1	53	41.1	1	6	315	0.00	29.951 
08:20	58.1	58.1	58.1	54	41.5	1	4	338	0.00	29.951 
08:25	58.3	58.3	58.3	54	41.7	1	7	270	0.00	29.951 
08:30	58.4	58.4	58.4	54	41.8	1	2	338	0.00	29.954 
08:35	58.7	58.7	58.7	54	42.1	1	7	338	0.00	29.954 
08:40	59.0	59.0	59.0	55	42.9	0	2	270	0.00	29.954 
08:45	58.9	58.9	58.9	52	41.3	1	4	22	0.00	29.959 
08:50	58.7	58.7	58.7	54	42.1	1	4	315	0.00	29.959 
08:55	58.9	58.9	58.9	52	41.3	2	6	270	0.00	29.959 
09:00	59.0	59.0	59.0	50	40.4	1	5	270	0.00	29.965 
09:05	59.2	59.2	59.2	46	38.4	1	3	338	0.00	29.965 
09:10	59.3	59.3	59.3	47	39.1	1	5	315	0.00	29.965 
09:15	59.0	59.0	59.0	45	37.7	2	6	292	0.00	29.977 
09:20	58.7	58.7	58.7	44	36.8	1	4	338	0.00	29.977 
09:25	58.7	58.7	58.7	46	38.0	1	4	0	0.00	29.977 
09:30	59.5	59.5	59.5	45	38.1	1	3	338	0.00	29.981 
09:35	60.1	60.1	60.1	47	39.8	1	3	270	0.00	29.981 
09:40	60.7	60.7	60.7	42	37.5	1	4	315	0.00	29.981 
09:45	60.9	60.9	60.9	41	37.0	1	4	338	0.00	29.988 
09:50	60.4	60.4	60.4	38	34.7	1	4	248	0.00	29.988 
09:55	59.6	59.6	59.6	38	34.0	1	3	338	0.00	29.988 
10:00	59.5	59.5	59.5	38	33.9	1	6	315	0.00	29.994 
10:05	59.5	59.5	59.5	38	33.9	1	4	0	0.00	29.994 
10:10	59.5	59.5	59.5	36	32.5	1	3	315	0.00	29.994 
10:15	59.0	59.0	59.0	38	33.4	1	2	45	0.00	30.003 
10:20	59.0	59.0	59.0	37	32.8	1	9	22	0.00	30.003 
10:25	59.0	59.0	59.0	39	34.1	1	6	0	0.00	30.003 
10:30	59.6	59.6	59.6	39	34.6	1	2	112	0.00	30.007 
10:35	60.2	60.2	60.2	38	34.5	1	6	292	0.00	30.007 
10:40	60.2	60.2	60.2	35	32.4	1	5	270	0.00	30.007 
10:45	60.2	60.2	60.2	35	32.4	1	3	68	0.00	30.014 
10:50	60.4	60.4	60.4	37	34.0	1	3	248	0.00	30.014 
10:55	60.7	60.7	60.7	34	32.2	1	6	112	0.00	30.014 
11:00	60.7	60.7	60.7	36	33.6	1	5	112	0.00	30.015 
11:05	60.4	60.4	60.4	36	33.3	1	4	225	0.00	30.015 
11:10	60.7	60.7	60.7	35	32.9	2	9	112	0.00	30.015 
11:15	60.7	60.7	60.7	35	32.9	1	5	270	0.00	30.018 
11:20	60.7	60.7	60.7	37	34.3	1	4	90	0.00	30.018 
11:25	61.5	61.5	61.5	36	34.3	1	3	90	0.00	30.018 
11:30	62.4	62.4	62.4	35	34.4	1	4	292	0.00	30.015 
11:35	63.1	63.1	63.1	33	33.5	1	6	45	0.00	30.015 
11:40	63.5	63.5	63.5	35	35.4	1	3	112	0.00	30.015 
11:45	64.2	64.2	64.2	36	36.7	1	4	112	0.00	30.015 
11:50	64.3	64.3	64.3	33	34.6	1	5	90	0.00	30.015 
11:55	64.8	64.8	64.8	37	37.9	1	5	112	0.00	30.015 
12:00	65.3	65.3	65.3	37	38.4	1	6	112	0.00	30.015 
12:05	65.6	65.6	65.6	33	35.7	1	5	292	0.00	30.015 
12:10	65.6	65.6	65.6	34	36.5	1	5	292	0.00	30.015 
12:15	66.1	66.1	66.1	32	35.4	1	4	248	0.00	30.014 
12:20	66.4	66.4	66.4	32	35.6	1	4	135	0.00	30.014 
12:25	66.8	66.8	66.8	31	35.2	1	3	112	0.00	30.014 
12:30	66.8	66.8	66.8	30	34.4	1	3	22	0.00	30.017 
12:35	66.3	66.3	66.3	29	33.1	2	7	270	0.00	30.017 
12:40	66.4	66.4	66.4	32	35.6	1	6	270	0.00	30.017 
12:45	67.1	67.1	67.1	33	37.0	1	5	112	0.00	30.014 
12:50	67.3	67.3	67.3	30	34.8	1	5	270	0.00	30.014 
12:55	67.4	67.4	67.4	33	37.3	1	5	112	0.00	30.014 
13:00	67.4	67.4	67.4	30	34.9	1	4	90	0.00	30.017 
13:05	67.8	67.8	67.8	33	37.6	1	6	68	0.00	30.017 
13:10	67.8	67.8	67.8	30	35.2	1	5	338	0.00	30.017 
13:15	67.8	67.8	67.8	31	36.1	1	4	292	0.00	30.014 
13:20	67.8	67.8	67.8	28	33.5	2	4	248	0.00	30.014 
13:25	67.6	67.6	67.6	31	35.9	1	4	270	0.00	30.014 
13:30	67.9	67.9	67.9	28	33.6	1	5	270	0.00	30.009 
13:35	68.4	68.4	68.4	30	35.7	1	4	270	0.00	30.009 
13:40	68.4	68.4	68.4	28	34.0	1	4	270	0.00	30.009 
13:45	68.4	68.4	68.4	27	33.1	1	4	292	0.00	30.008 
13:50	68.1	68.1	68.1	28	33.8	1	4	292	0.00	30.008 
13:55	68.3	68.3	68.3	28	33.9	1	4	292	0.00	30.008 
14:00	68.4	68.4	68.4	30	35.7	1	4	270	0.00	30.006 
14:05	68.4	68.4	68.4	27	33.1	1	5	315	0.00	30.006 
14:10	68.3	68.3	68.3	30	35.7	1	4	270	0.00	30.006 
14:15	68.9	68.9	68.9	31	37.0	1	4	90	0.00	30.003 
14:20	68.9	68.9	68.9	27	33.5	1	3	248	0.00	30.003 
14:25	68.8	68.8	68.8	27	33.5	1	4	45	0.00	30.003 
14:30	68.8	68.8	68.8	27	33.5	1	6	292	0.00	30.003 
14:35	69.1	69.1	69.1	31	37.2	1	3	90	0.00	30.003 
14:40	69.3	69.3	69.3	29	35.7	1	5	90	0.00	30.003 
14:45	69.4	69.4	69.4	27	34.0	1	4	112	0.00	30.007 
14:50	68.9	68.9	68.9	27	33.5	2	6	270	0.00	30.007 
14:55	68.8	68.8	68.8	27	33.5	1	4	270	0.00	30.007 
15:00	68.9	68.9	68.9	25	31.6	1	3	270	0.00	30.009 
15:05	68.8	68.8	68.8	25	31.5	1	5	270	0.00	30.009 
15:10	69.3	69.3	69.3	28	34.8	1	2	338	0.00	30.009 
15:15	69.6	69.6	69.6	26	33.2	1	5	315	0.00	30.010 
15:20	69.4	69.4	69.4	27	34.0	1	3	90	0.00	30.010 
15:25	69.3	69.3	69.3	31	37.4	1	6	270	0.00	30.010 
15:30	69.4	69.4	69.4	28	34.9	1	5	112	0.00	30.009 
15:35	69.6	69.6	69.6	27	34.1	1	4	292	0.00	30.009 
15:40	69.8	69.8	69.8	26	33.4	1	4	112	0.00	30.009 
15:45	69.3	69.3	69.3	25	32.0	1	4	22	0.00	30.009 
15:50	69.1	69.1	69.1	25	31.8	2	7	90	0.00	30.009 
15:55	69.1	69.1	69.1	24	30.8	1	3	90	0.00	30.009 
16:00	69.1	69.1	69.1	24	30.8	1	5	0	0.00	30.010 
16:05	69.4	69.4	69.4	24	31.0	1	4	270	0.00	30.010 
16:10	69.6	69.6	69.6	25	32.2	2	6	112	0.00	30.010 
16:15	69.4	69.4	69.4	27	34.0	1	4	135	0.00	30.011 
16:20	69.1	69.1	69.1	25	31.8	1	4	22	0.00	30.011 
16:25	69.1	69.1	69.1	25	31.8	1	3	90	0.00	30.011 
16:30	68.9	68.9	68.9	24	30.6	1	4	248	0.00	30.007 
16:35	68.6	68.6	68.6	28	34.2	1	4	338	0.00	30.007 
16:40	68.9	68.9	68.9	26	32.6	1	5	90	0.00	30.007 
16:45	69.1	69.1	69.1	25	31.8	0	3	292	0.00	30.005 
16:50	69.3	69.3	69.3	24	31.0	0	2	292	0.00	30.005 
16:55	69.3	69.3	69.3	24	31.0	2	5	112	0.00	30.005 
17:00	69.1	69.1	69.1	27	33.7	2	5	90	0.00	30.005 
17:05	69.1	69.1	69.1	24	30.8	1	3	90	0.00	30.005 
17:10	69.1	69.1	69.1	25	31.8	1	4	112	0.00	30.005 
17:15	68.9	68.9	68.9	23	29.6	1	5	22	0.00	30.008 
17:20	68.9	68.9	68.9	26	32.6	1	3	248	0.00	30.008 
17:25	68.9	68.9	68.9	26	32.6	1	6	270	0.00	30.008 
17:30	68.9	68.9	68.9	26	32.6	0	1	292	0.00	30.010 
17:35	68.8	68.8	68.8	26	32.5	1	5	112	0.00	30.010 
17:40	68.4	68.4	68.4	27	33.1	1	3	90	0.00	30.010 
17:45	68.4	68.4	68.4	27	33.1	1	4	90	0.00	30.013 
17:50	68.4	68.4	68.4	27	33.1	0	2	90	0.00	30.013 
17:55	68.4	68.4	68.4	27	33.1	1	5	135	0.00	30.013 
18:00	68.1	68.1	68.1	26	31.9	0	3	338	0.00	30.016 
18:05	67.9	67.9	67.9	26	31.7	0	2	0	0.00	30.016 
18:10	67.8	67.8	67.8	25	30.7	2	5	112	0.00	30.016 
18:15	67.4	67.4	67.4	26	31.3	0	4	112	0.00	30.016 
18:20	67.3	67.3	67.3	26	31.2	0	3	112	0.00	30.016 
18:25	67.1	67.1	67.1	26	31.1	0	3	112	0.00	30.016 
18:30	66.9	66.9	66.9	26	30.9	0	1	270	0.00	30.018 
18:35	66.9	66.9	66.9	26	30.9	0	2	270	0.00	30.018 
18:40	66.8	66.8	66.8	26	30.8	0	4	90	0.00	30.018 
18:45	66.9	66.9	66.9	27	31.8	0	5	90	0.00	30.018 
18:50	66.9	66.9	66.9	25	29.9	1	5	270	0.00	30.018 
18:55	66.8	66.8	66.8	25	29.8	0	1	270	0.00	30.018 
19:00	66.6	66.6	66.6	26	30.6	0	2	270	0.00	30.016 
19:05	66.4	66.4	66.4	27	31.4	0	2	270	0.00	30.016 
19:10	66.3	66.3	66.3	28	32.2	0	2	90	0.00	30.016 
19:15	66.1	66.1	66.1	28	32.0	0	2	90	0.00	30.021 
19:20	66.0	66.0	66.0	27	31.1	0	2	90	0.00	30.021 
19:25	65.8	65.8	65.8	27	30.9	0	1	90	0.00	30.021 
19:30	65.6	65.6	65.6	27	30.7	0	2	90	0.00	30.026 
19:35	65.6	65.6	65.6	27	30.7	0	2	90	0.00	30.026 
19:40	65.5	65.5	65.5	27	30.6	0	2	90	0.00	30.026 
19:45	65.3	65.3	65.3	28	31.4	0	1	90	0.00	30.031 
19:50	65.2	65.2	65.2	29	32.1	0	3	90	0.00	30.031 
19:55	65.0	65.0	65.0	30	32.8	0	1	90	0.00	30.031 
20:00	64.8	64.8	64.8	29	31.8	0	1	90	0.00	30.033 
20:05	64.5	64.5	64.5	29	31.5	0	0	---	0.00	30.033 
20:10	64.3	64.3	64.3	29	31.4	0	3	90	0.00	30.033 
20:15	64.0	64.0	64.0	30	31.9	0	1	90	0.00	30.036 
20:20	63.9	63.9	63.9	30	31.9	0	0	---	0.00	30.036 
20:25	63.5	63.5	63.5	31	32.3	0	1	90	0.00	30.036 
20:30	63.2	63.2	63.2	32	32.9	0	0	---	0.00	30.037 
20:35	62.7	62.7	62.7	33	33.2	0	0	---	0.00	30.037 
20:40	62.4	62.4	62.4	33	32.9	0	0	---	0.00	30.037 
20:45	62.1	62.1	62.1	34	33.4	0	0	---	0.00	30.043 
20:50	61.6	61.6	61.6	35	33.7	0	0	---	0.00	30.043 
20:55	61.3	61.3	61.3	35	33.4	0	0	---	0.00	30.043 
21:00	60.7	60.7	60.7	36	33.6	0	0	---	0.00	30.051 
21:05	60.2	60.2	60.2	38	34.5	0	0	---	0.00	30.051 
21:10	59.8	59.8	59.8	39	34.8	0	0	---	0.00	30.051 
21:15	59.3	59.3	59.3	39	34.3	0	0	---	0.00	30.052 
21:20	59.0	59.0	59.0	40	34.7	0	0	---	0.00	30.052 
21:25	58.6	58.6	58.6	41	35.0	0	0	---	0.00	30.052 
21:30	58.3	58.3	58.3	43	35.9	0	0	---	0.00	30.056 
21:35	57.8	57.8	57.8	43	35.5	0	0	---	0.00	30.056 
21:40	57.5	57.5	57.5	43	35.2	0	0	---	0.00	30.056 
21:45	57.2	57.2	57.2	44	35.5	0	0	---	0.00	30.064 
21:50	56.9	56.9	56.9	44	35.2	0	0	---	0.00	30.064 
21:55	56.6	56.6	56.6	45	35.5	0	0	---	0.00	30.064 
22:00	56.5	56.5	56.5	46	36.0	0	0	---	0.00	30.071 
22:05	56.2	56.2	56.2	47	36.2	0	0	---	0.00	30.071 
22:10	55.9	55.9	55.9	48	36.5	0	0	---	0.00	30.071 
22:15	55.7	55.7	55.7	48	36.3	0	0	---	0.00	30.072 
22:20	55.4	55.4	55.4	48	36.0	0	0	---	0.00	30.072 
22:25	55.1	55.1	55.1	49	36.3	0	0	---	0.00	30.072 
22:30	55.0	55.0	55.0	49	36.2	0	0	---	0.00	30.074 
22:35	54.7	54.7	54.7	49	35.9	0	0	---	0.00	30.074 
22:40	54.5	54.5	54.5	50	36.2	0	0	---	0.00	30.074 
22:45	54.5	54.5	54.5	50	36.2	0	0	---	0.00	30.080 
22:50	54.4	54.4	54.4	51	36.7	0	0	---	0.00	30.080 
22:55	54.1	54.1	54.1	52	36.9	0	0	---	0.00	30.080 
23:00	53.9	53.9	53.9	53	37.2	0	0	---	0.00	30.088 
23:05	53.6	53.6	53.6	53	36.9	0	0	---	0.00	30.088 
23:10	53.5	53.5	53.5	54	37.3	0	0	---	0.00	30.088 
23:15	53.2	53.2	53.2	54	37.0	0	0	---	0.00	30.087 
23:20	53.1	53.1	53.1	54	36.9	0	0	---	0.00	30.087 
23:25	52.8	52.8	52.8	55	37.1	0	0	---	0.00	30.087 
23:30	52.5	52.5	52.5	56	37.3	0	0	---	0.00	30.089 
23:35	52.3	52.3	52.3	56	37.1	0	0	---	0.00	30.089 
23:40	52.0	52.0	52.0	57	37.2	0	0	---	0.00	30.089 
23:45	51.9	51.9	51.9	58	37.6	0	0	---	0.00	30.091 
23:50	51.6	51.6	51.6	59	37.7	0	1	90	0.00	30.091 
23:55	51.4	51.4	51.4	61	38.4	0	0	---	0.00	30.091 

CoCoRaHS
IN-AL-39
A2 Web Hosting
Creative Commons License
GoDaddy
search engine by freefind advanced

loaded 2018-11-19 11:33:51 • last modified 2010-11-18 10:43:29
Privacy PolicyDisclaimer
• wx.awcolley.com is powered by PmWiki v.2002016 •
• all content (unless otherwise noted) © 2018 A W Colley